Time;durP1;ratioP1;P1;durP2;ratioP2;P2;SDS_P1;SDS_P2;PMS_P1;PMS_P2;Temp;Humidity;BMP_temperature;BMP_pressure;BME280_temperature;BME280_humidity;BME280_pressure;Samples;Min_cycle;Max_cycle;Signal;HPM_P1;HPM_P2
2022/11/15 00:00:09;;;;;;;20.15;10.05;;;7.40;99.90;;;;;;5038277;28;20045;-46
2022/11/15 00:02:35;;;;;;;18.90;9.23;;;7.40;99.90;;;;;;5039751;28;20045;-48
2022/11/15 00:05:01;;;;;;;19.88;9.45;;;7.40;99.90;;;;;;5043400;28;20559;-46
2022/11/15 00:07:26;;;;;;;17.35;9.43;;;7.40;99.90;;;;;;5046297;28;20041;-43
2022/11/15 00:09:52;;;;;;;15.32;8.32;;;7.40;99.90;;;;;;5044798;28;20073;-44
2022/11/15 00:12:17;;;;;;;18.65;9.35;;;7.30;99.90;;;;;;5042095;28;20391;-45
2022/11/15 00:14:43;;;;;;;14.18;7.22;;;7.40;99.90;;;;;;5049318;28;20512;-44
2022/11/15 00:17:09;;;;;;;18.90;9.32;;;7.30;99.90;;;;;;5040837;28;20044;-45
2022/11/15 00:19:34;;;;;;;16.85;9.43;;;7.30;99.90;;;;;;5043475;28;20044;-45
2022/11/15 00:22:00;;;;;;;16.60;9.23;;;7.20;99.90;;;;;;5048520;28;20041;-41
2022/11/15 00:24:26;;;;;;;15.55;8.43;;;7.20;99.90;;;;;;5043918;28;20492;-44
2022/11/15 00:26:51;;;;;;;16.50;8.40;;;7.20;99.90;;;;;;5047191;28;20044;-43
2022/11/15 00:29:17;;;;;;;19.65;10.02;;;7.20;99.90;;;;;;5041536;28;20056;-44
2022/11/15 00:31:42;;;;;;;19.90;10.15;;;7.20;99.90;;;;;;5045052;28;20033;-46
2022/11/15 00:34:09;;;;;;;22.67;10.90;;;7.20;99.90;;;;;;5045514;28;20121;-44
2022/11/15 00:36:35;;;;;;;17.65;9.25;;;7.20;99.90;;;;;;5046437;28;20490;-47
2022/11/15 00:39:03;;;;;;;16.05;8.15;;;7.20;99.90;;;;;;5049767;28;20070;-47
2022/11/15 00:41:28;;;;;;;17.75;9.77;;;7.20;99.90;;;;;;5042949;28;20041;-44
2022/11/15 00:43:54;;;;;;;16.83;8.50;;;7.20;99.90;;;;;;5041158;28;20367;-43
2022/11/15 00:46:19;;;;;;;19.48;9.65;;;7.20;99.90;;;;;;5044326;28;20438;-41
2022/11/15 00:48:45;;;;;;;16.05;7.85;;;7.20;99.90;;;;;;5046778;28;20036;-46
2022/11/15 00:51:11;;;;;;;16.83;8.93;;;7.20;99.90;;;;;;5046000;28;20041;-47
2022/11/15 00:53:36;;;;;;;18.17;9.43;;;7.20;99.90;;;;;;5046621;28;20095;-41
2022/11/15 00:56:02;;;;;;;18.05;9.23;;;7.20;99.90;;;;;;5042380;28;20491;-44
2022/11/15 00:58:28;;;;;;;19.02;8.98;;;7.20;99.90;;;;;;5039173;28;20418;-43
2022/11/15 01:00:54;;;;;;;17.48;8.73;;;7.20;99.90;;;;;;5044685;28;20033;-44
2022/11/15 01:03:20;;;;;;;19.23;9.20;;;7.20;99.90;;;;;;5046132;28;20044;-46
2022/11/15 01:05:46;;;;;;;21.75;9.60;;;7.20;99.90;;;;;;5049344;28;20047;-45
2022/11/15 01:08:16;;;;;;;16.90;9.48;;;7.20;99.90;;;;;;5045596;28;20045;-45
2022/11/15 01:10:42;;;;;;;22.55;9.77;;;7.20;99.90;;;;;;5044703;28;20041;-43
2022/11/15 01:13:07;;;;;;;20.67;9.88;;;7.20;99.90;;;;;;5045870;28;20139;-44
2022/11/15 01:15:33;;;;;;;19.15;9.02;;;7.20;99.90;;;;;;5048017;28;20090;-46
2022/11/15 01:17:59;;;;;;;19.02;9.40;;;7.30;99.90;;;;;;5048867;28;20529;-44
2022/11/15 01:20:24;;;;;;;16.90;8.55;;;7.30;99.90;;;;;;5047581;28;20099;-46
2022/11/15 01:22:50;;;;;;;21.95;10.38;;;7.30;99.90;;;;;;5050423;28;20490;-45
2022/11/15 01:25:16;;;;;;;21.25;9.88;;;7.30;99.90;;;;;;5044414;28;20048;-46
2022/11/15 01:27:41;;;;;;;22.98;10.23;;;7.30;99.90;;;;;;5045635;28;20063;-45
2022/11/15 01:30:08;;;;;;;19.88;9.40;;;7.30;99.90;;;;;;5045992;28;20045;-44
2022/11/15 01:32:34;;;;;;;21.30;11.05;;;7.30;99.90;;;;;;5046014;28;20044;-46
2022/11/15 01:34:59;;;;;;;20.13;10.52;;;7.30;99.90;;;;;;5046170;28;20045;-43
2022/11/15 01:37:25;;;;;;;16.27;9.30;;;7.40;99.90;;;;;;5045399;28;20035;-44
2022/11/15 01:39:50;;;;;;;20.10;9.88;;;7.40;99.90;;;;;;5047696;28;20414;-39
2022/11/15 01:42:17;;;;;;;19.25;9.40;;;7.40;99.90;;;;;;5042168;28;20104;-44
2022/11/15 01:44:52;;;;;;;17.50;8.90;;;7.40;99.90;;;;;;5044520;28;20045;-44
2022/11/15 01:47:24;;;;;;;17.15;8.75;;;7.40;99.90;;;;;;5046296;28;20128;-42
2022/11/15 01:50:13;;;;;;;23.17;10.07;;;7.40;99.90;;;;;;5041433;28;20672;-45
2022/11/15 01:52:40;;;;;;;19.50;9.20;;;7.50;99.90;;;;;;5046238;28;20600;-54
2022/11/15 01:55:13;;;;;;;20.75;9.82;;;7.50;99.90;;;;;;5045418;28;20490;-43
2022/11/15 01:57:41;;;;;;;21.55;9.48;;;7.50;99.90;;;;;;5044701;28;20037;-44
2022/11/15 02:00:07;;;;;;;18.35;8.98;;;7.50;99.90;;;;;;5047707;28;20442;-46
2022/11/15 02:02:36;;;;;;;23.20;10.30;;;7.50;99.90;;;;;;5041972;28;20044;-48
2022/11/15 02:05:01;;;;;;;24.90;10.02;;;7.60;99.90;;;;;;5049500;28;20044;-45
2022/11/15 02:07:29;;;;;;;26.48;10.70;;;7.60;99.90;;;;;;5043980;28;20055;-45
2022/11/15 02:09:56;;;;;;;24.17;11.40;;;7.60;99.90;;;;;;5048606;28;20040;-42
2022/11/15 02:12:22;;;;;;;20.02;9.60;;;7.60;99.90;;;;;;5047927;28;20071;-49
2022/11/15 02:14:51;;;;;;;22.92;10.32;;;7.60;99.90;;;;;;5043612;28;20513;-46
2022/11/15 02:17:28;;;;;;;20.95;9.38;;;7.60;99.90;;;;;;5047862;28;20505;-47
2022/11/15 02:20:06;;;;;;;22.50;9.95;;;7.60;99.90;;;;;;5045354;28;20028;-43
2022/11/15 02:23:12;;;;;;;22.02;10.63;;;7.60;99.90;;;;;;5043255;28;20048;-45
2022/11/15 02:25:53;;;;;;;25.02;11.15;;;7.70;99.90;;;;;;5040675;28;20481;-45
2022/11/15 02:28:21;;;;;;;23.50;10.45;;;7.70;99.90;;;;;;5044567;28;20057;-48
2022/11/15 02:30:47;;;;;;;25.05;10.05;;;7.70;99.90;;;;;;5048633;28;20567;-46
2022/11/15 02:33:54;;;;;;;27.88;12.38;;;7.70;99.90;;;;;;5045746;28;20050;-43
2022/11/15 02:36:26;;;;;;;26.25;11.25;;;7.70;99.90;;;;;;5037336;28;20053;-44
2022/11/15 02:38:59;;;;;;;27.92;12.10;;;7.70;99.90;;;;;;5037359;28;20415;-45
2022/11/15 02:41:39;;;;;;;32.30;11.30;;;7.80;99.90;;;;;;5043148;28;20525;-45
2022/11/15 02:44:19;;;;;;;27.08;10.48;;;7.80;99.90;;;;;;5044578;28;20406;-47
2022/11/15 02:49:39;;;;;;;26.33;11.20;;;7.80;99.90;;;;;;5038430;28;20045;-44
2022/11/15 02:52:05;;;;;;;24.05;10.90;;;7.90;99.90;;;;;;5046567;28;20043;-46
2022/11/15 02:54:32;;;;;;;30.15;11.10;;;7.90;99.90;;;;;;5044157;28;20041;-47
2022/11/15 02:57:14;;;;;;;27.42;11.00;;;7.90;99.90;;;;;;5045410;28;20506;-42
2022/11/15 03:00:04;;;;;;;24.25;11.77;;;7.90;99.90;;;;;;5047007;28;20485;-45
2022/11/15 03:02:41;;;;;;;28.13;11.75;;;8.00;99.90;;;;;;5041749;28;20048;-43
2022/11/15 03:05:16;;;;;;;29.65;10.85;;;8.00;99.90;;;;;;5042135;28;20037;-46
2022/11/15 03:07:59;;;;;;;22.60;10.73;;;8.00;99.90;;;;;;5046189;28;20195;-46
2022/11/15 03:10:36;;;;;;;;;;;8.00;99.90;;;;;;5048114;28;20068;-47
2022/11/15 03:13:37;;;;;;;21.20;11.18;;;8.10;99.90;;;;;;5046824;28;19921;-48
2022/11/15 03:16:04;;;;;;;23.00;10.52;;;8.10;99.90;;;;;;5022859;28;20057;-47
2022/11/15 03:18:35;;;;;;;24.90;12.00;;;8.10;99.90;;;;;;5042943;28;20052;-41
2022/11/15 03:21:05;;;;;;;24.13;11.48;;;8.10;99.90;;;;;;5042636;28;20403;-49
2022/11/15 03:23:32;;;;;;;23.05;11.48;;;8.10;99.90;;;;;;5043879;28;20036;-46
2022/11/15 03:26:00;;;;;;;26.08;11.20;;;8.20;99.90;;;;;;5047080;28;20045;-49
2022/11/15 03:28:42;;;;;;;20.27;9.82;;;8.20;99.90;;;;;;5044339;28;20099;-46
2022/11/15 03:33:57;;;;;;;22.42;11.80;;;8.20;99.90;;;;;;5040182;28;20597;-50
2022/11/15 03:36:24;;;;;;;24.35;10.98;;;8.30;99.90;;;;;;5047186;28;20037;-46
2022/11/15 03:38:54;;;;;;;25.02;12.02;;;8.30;99.90;;;;;;5040130;28;20486;-45
2022/11/15 03:41:43;;;;;;;28.92;12.80;;;8.30;99.90;;;;;;5048803;28;20044;-44
2022/11/15 03:44:34;;;;;;;31.30;13.30;;;8.30;99.90;;;;;;5045540;28;20492;-48
2022/11/15 03:47:12;;;;;;;24.92;12.07;;;8.40;99.90;;;;;;5044772;28;20041;-46
2022/11/15 03:49:44;;;;;;;31.90;12.15;;;8.40;99.90;;;;;;5045368;28;20037;-47
2022/11/15 03:52:10;;;;;;;27.60;12.20;;;8.40;99.90;;;;;;5042088;28;20116;-43
2022/11/15 03:54:37;;;;;;;28.67;12.38;;;8.50;99.90;;;;;;5044002;28;20059;-46
2022/11/15 03:57:02;;;;;;;28.58;13.70;;;8.50;99.90;;;;;;5044563;28;20041;-45
2022/11/15 03:59:28;;;;;;;34.85;14.68;;;8.50;99.90;;;;;;5048253;28;20095;-43
2022/11/15 04:01:54;;;;;;;29.15;13.88;;;8.50;99.90;;;;;;5044226;28;20037;-46
2022/11/15 04:04:19;;;;;;;36.47;12.88;;;8.50;99.90;;;;;;5046640;28;20055;-48
2022/11/15 04:06:45;;;;;;;31.58;13.70;;;8.60;99.90;;;;;;5052235;28;20041;-48
2022/11/15 04:09:10;;;;;;;31.38;13.40;;;8.60;99.90;;;;;;5049664;28;20048;-46
2022/11/15 04:11:36;;;;;;;35.72;14.18;;;8.70;99.90;;;;;;5046375;28;20395;-45
2022/11/15 04:14:02;;;;;;;32.60;14.38;;;8.70;99.90;;;;;;5048436;28;20095;-49
2022/11/15 04:16:27;;;;;;;36.83;14.60;;;8.70;99.90;;;;;;5046693;28;20076;-48
2022/11/15 04:24:22;;;;;;;29.52;13.43;;;8.80;99.90;;;;;;5045932;28;20731;-42
2022/11/15 04:26:47;;;;;;;35.80;15.02;;;8.80;99.90;;;;;;5051056;28;20112;-48
2022/11/15 04:31:57;;;;;;;32.80;13.88;;;8.90;99.90;;;;;;5046530;28;20045;-42
2022/11/15 04:34:23;;;;;;;37.42;15.15;;;8.90;99.90;;;;;;5045927;28;20284;-49
2022/11/15 04:39:33;;;;;;;34.83;14.63;;;8.90;99.90;;;;;;5043888;28;20037;-49
2022/11/15 04:41:58;;;;;;;36.65;14.93;;;8.90;99.90;;;;;;5051259;28;20521;-43
2022/11/15 04:44:24;;;;;;;41.05;15.82;;;8.90;99.90;;;;;;5039689;28;20127;-45
2022/11/15 04:46:49;;;;;;;43.55;14.88;;;8.90;99.90;;;;;;5053575;28;20414;-44
2022/11/15 04:49:15;;;;;;;40.67;15.77;;;8.90;99.90;;;;;;5046912;28;20048;-46
2022/11/15 04:51:41;;;;;;;34.40;15.35;;;9.00;99.90;;;;;;5047147;28;20497;-45
2022/11/15 04:54:06;;;;;;;34.05;15.07;;;9.00;99.90;;;;;;5045753;28;20482;-43
2022/11/15 04:56:32;;;;;;;40.85;15.85;;;9.00;99.90;;;;;;5050024;28;20038;-46
2022/11/15 04:58:57;;;;;;;38.45;15.43;;;9.00;99.90;;;;;;5041262;28;20029;-47
2022/11/15 05:01:23;;;;;;;32.72;15.25;;;9.00;99.90;;;;;;5046244;28;20037;-48
2022/11/15 05:06:33;;;;;;;31.77;14.00;;;9.10;99.90;;;;;;5048557;28;20051;-47
2022/11/15 05:08:59;;;;;;;31.45;15.40;;;9.10;99.90;;;;;;5047803;28;20162;-48
2022/11/15 05:11:24;;;;;;;29.85;14.50;;;9.10;99.90;;;;;;5044654;28;20064;-50
2022/11/15 05:13:50;;;;;;;40.42;14.95;;;9.10;99.90;;;;;;5047962;28;20048;-41
2022/11/15 05:16:16;;;;;;;30.17;14.35;;;9.10;99.90;;;;;;5047241;28;20486;-42
2022/11/15 05:18:42;;;;;;;32.45;13.68;;;9.20;99.90;;;;;;5046076;28;20036;-45
2022/11/15 05:21:13;;;;;;;30.45;13.25;;;9.20;99.90;;;;;;5047159;28;20044;-46
2022/11/15 05:23:39;;;;;;;34.33;13.93;;;9.20;99.90;;;;;;5047543;28;20581;-49
2022/11/15 05:26:05;;;;;;;33.90;14.45;;;9.30;99.90;;;;;;5047329;28;20080;-45
2022/11/15 05:28:32;;;;;;;33.05;15.50;;;9.30;99.90;;;;;;5046299;28;20801;-49
2022/11/15 05:31:15;;;;;;;35.95;15.45;;;9.30;99.90;;;;;;5047520;28;20099;-45
2022/11/15 05:33:42;;;;;;;34.95;15.00;;;9.30;99.90;;;;;;5046045;28;20048;-42
2022/11/15 05:36:26;;;;;;;31.48;14.25;;;9.40;99.90;;;;;;5050560;28;20125;-47
2022/11/15 05:38:52;;;;;;;31.75;14.27;;;9.30;99.90;;;;;;5046676;28;20112;-44
2022/11/15 05:41:24;;;;;;;27.67;10.57;;;9.40;99.90;;;;;;5047090;28;20469;-49
2022/11/15 05:43:51;;;;;;;46.33;15.38;;;9.40;99.90;;;;;;5046620;28;20041;-45
2022/11/15 05:46:17;;;;;;;31.83;14.95;;;9.40;99.90;;;;;;5045831;28;20091;-46
2022/11/15 05:48:46;;;;;;;27.15;12.65;;;9.50;99.90;;;;;;5047023;28;20032;-47
2022/11/15 05:51:14;;;;;;;32.45;14.38;;;9.50;99.90;;;;;;5049108;28;20044;-42
2022/11/15 05:53:40;;;;;;;39.75;16.23;;;9.50;99.90;;;;;;5047148;28;20086;-41
2022/11/15 05:56:07;;;;;;;34.05;16.23;;;9.50;99.90;;;;;;5047887;28;20033;-41
2022/11/15 05:58:33;;;;;;;32.78;13.75;;;9.60;99.90;;;;;;5044412;28;20482;-48
2022/11/15 06:01:00;;;;;;;40.65;14.65;;;9.60;99.90;;;;;;5045156;28;20032;-47
2022/11/15 06:03:25;;;;;;;33.45;13.98;;;9.60;99.90;;;;;;5047753;28;20040;-43
2022/11/15 06:05:51;;;;;;;31.35;13.93;;;9.60;99.90;;;;;;5043455;28;20041;-45
2022/11/15 06:08:16;;;;;;;31.83;14.65;;;9.70;99.90;;;;;;5044676;28;20045;-48
2022/11/15 06:10:42;;;;;;;32.30;14.45;;;9.70;99.90;;;;;;5046783;28;20110;-52
2022/11/15 06:13:08;;;;;;;36.22;15.40;;;9.70;99.90;;;;;;5030380;28;20069;-43
2022/11/15 06:15:34;;;;;;;35.17;14.70;;;9.70;99.90;;;;;;5045597;28;20124;-43
2022/11/15 06:18:00;;;;;;;37.95;15.30;;;9.70;99.90;;;;;;5050930;28;20443;-45
2022/11/15 06:20:27;;;;;;;31.67;12.45;;;9.70;99.90;;;;;;5048234;28;20037;-47
2022/11/15 06:23:01;;;;;;;36.13;14.95;;;9.70;99.90;;;;;;5041700;28;20056;-48
2022/11/15 06:25:28;;;;;;;31.60;14.35;;;9.70;99.90;;;;;;5048747;28;20173;-45
2022/11/15 06:27:55;;;;;;;29.70;12.95;;;9.70;99.90;;;;;;5043231;28;20045;-50
2022/11/15 06:30:22;;;;;;;30.85;13.38;;;9.80;99.90;;;;;;5047844;28;20039;-47
2022/11/15 06:32:48;;;;;;;34.55;14.85;;;9.80;99.90;;;;;;5039270;28;20036;-45
2022/11/15 06:35:14;;;;;;;30.55;13.45;;;9.80;99.90;;;;;;5037582;28;20041;-48
2022/11/15 06:37:40;;;;;;;30.63;15.10;;;9.80;99.90;;;;;;5043368;28;20122;-42
2022/11/15 06:40:07;;;;;;;28.65;14.52;;;9.70;99.90;;;;;;5044926;28;20037;-44
2022/11/15 06:42:33;;;;;;;31.35;14.00;;;9.80;99.90;;;;;;5041674;28;20516;-46
2022/11/15 06:44:59;;;;;;;29.08;13.80;;;9.80;99.90;;;;;;5039423;28;20130;-49
2022/11/15 06:47:24;;;;;;;26.48;13.60;;;9.80;99.90;;;;;;5039162;28;20045;-47
2022/11/15 06:49:50;;;;;;;34.50;14.95;;;9.80;99.90;;;;;;5040801;28;20039;-41
2022/11/15 06:52:18;;;;;;;27.27;13.73;;;9.80;99.90;;;;;;5045906;28;20044;-48
2022/11/15 06:54:44;;;;;;;27.48;13.10;;;9.80;99.90;;;;;;5044881;28;20091;-48
2022/11/15 06:57:10;;;;;;;28.08;14.77;;;9.80;99.90;;;;;;5047020;28;20037;-45
2022/11/15 06:59:36;;;;;;;27.88;12.52;;;9.80;99.90;;;;;;5040226;28;20091;-43
2022/11/15 07:02:02;;;;;;;28.38;12.40;;;9.90;99.90;;;;;;5038935;28;20505;-47
2022/11/15 07:04:27;;;;;;;24.65;12.70;;;9.90;99.90;;;;;;5041848;28;20083;-49
2022/11/15 07:06:53;;;;;;;29.63;14.50;;;9.90;99.90;;;;;;5041136;28;20041;-45
2022/11/15 07:09:18;;;;;;;26.42;13.23;;;9.90;99.90;;;;;;5036258;28;20037;-46
2022/11/15 07:11:44;;;;;;;23.98;13.07;;;9.90;99.90;;;;;;5035728;28;20082;-44
2022/11/15 07:14:10;;;;;;;27.27;12.98;;;9.90;99.90;;;;;;5036592;28;20096;-39
2022/11/15 07:16:36;;;;;;;23.42;12.88;;;10.00;99.90;;;;;;5034897;28;20486;-39
2022/11/15 07:19:02;;;;;;;24.90;12.57;;;10.00;99.90;;;;;;5037781;28;20054;-39
2022/11/15 07:21:28;;;;;;;25.00;12.35;;;10.00;99.90;;;;;;5032012;28;20467;-40
2022/11/15 07:23:54;;;;;;;28.33;12.85;;;10.00;99.90;;;;;;5039577;28;20490;-38
2022/11/15 07:26:19;;;;;;;25.27;11.93;;;10.00;99.90;;;;;;5040825;28;20044;-41
2022/11/15 07:28:45;;;;;;;22.60;12.13;;;10.00;99.90;;;;;;5037447;28;20045;-38
2022/11/15 07:31:11;;;;;;;26.08;13.07;;;10.00;99.90;;;;;;5036347;28;20032;-39
2022/11/15 07:33:36;;;;;;;22.13;12.07;;;10.00;99.90;;;;;;5036202;28;20037;-39
2022/11/15 07:36:04;;;;;;;28.05;13.68;;;10.00;99.90;;;;;;5040525;28;20041;-38
2022/11/15 07:38:30;;;;;;;24.33;12.68;;;10.00;99.90;;;;;;5035013;28;20042;-40
2022/11/15 07:41:01;;;;;;;26.08;12.15;;;10.00;99.90;;;;;;5047609;28;20482;-39
2022/11/15 07:43:28;;;;;;;31.13;12.60;;;10.00;99.90;;;;;;5044012;28;20049;-39
2022/11/15 07:45:53;;;;;;;29.23;13.30;;;10.00;99.90;;;;;;5043814;28;20041;-40
2022/11/15 07:48:19;;;;;;;29.92;14.05;;;10.00;99.90;;;;;;5047549;28;20142;-39
2022/11/15 07:50:45;;;;;;;32.20;14.07;;;10.10;99.90;;;;;;5054389;28;20067;-42
2022/11/15 07:53:11;;;;;;;26.75;13.18;;;10.10;99.90;;;;;;5040280;28;20139;-40
2022/11/15 07:55:37;;;;;;;26.48;12.82;;;10.10;99.90;;;;;;5038636;28;20049;-40
2022/11/15 07:58:08;;;;;;;25.20;13.52;;;10.10;99.90;;;;;;5036235;28;20044;-40
2022/11/15 08:00:35;;;;;;;23.90;13.77;;;10.10;99.90;;;;;;5040709;28;20037;-40
2022/11/15 08:03:09;;;;;;;27.23;13.15;;;10.20;99.90;;;;;;5035280;28;20135;-40
2022/11/15 08:05:36;;;;;;;26.60;12.80;;;10.20;99.90;;;;;;5041390;28;20036;-40
2022/11/15 08:08:02;;;;;;;27.33;13.10;;;10.30;99.90;;;;;;5055285;28;20376;-41
2022/11/15 08:10:28;;;;;;;27.73;12.85;;;10.30;99.90;;;;;;5058185;28;20120;-40
2022/11/15 08:12:59;;;;;;;28.10;13.52;;;10.30;99.90;;;;;;5042137;28;20029;-42
2022/11/15 08:15:25;;;;;;;26.15;12.80;;;10.30;99.90;;;;;;5041921;28;20047;-41
2022/11/15 08:17:59;;;;;;;24.52;13.35;;;10.40;99.90;;;;;;5046252;28;20044;-39
2022/11/15 08:20:29;;;;;;;28.25;12.98;;;10.40;99.90;;;;;;5040718;28;20499;-41
2022/11/15 08:22:59;;;;;;;28.70;13.68;;;10.40;99.90;;;;;;5043147;28;20779;-42
2022/11/15 08:25:26;;;;;;;26.92;14.55;;;10.40;99.90;;;;;;5043179;28;20095;-39
2022/11/15 08:28:00;;;;;;;30.13;13.75;;;10.50;99.90;;;;;;5040275;28;20053;-41
2022/11/15 08:30:26;;;;;;;23.67;12.27;;;10.50;99.90;;;;;;5039990;28;20529;-40
2022/11/15 08:32:52;;;;;;;21.73;13.02;;;10.50;99.90;;;;;;5041069;28;20073;-40
2022/11/15 08:35:19;;;;;;;22.83;12.30;;;10.50;99.90;;;;;;5048534;28;20040;-40
2022/11/15 08:37:44;;;;;;;24.95;14.10;;;10.50;99.90;;;;;;5063842;28;20041;-41
2022/11/15 08:40:10;;;;;;;28.27;13.40;;;10.50;99.90;;;;;;5050056;28;20044;-41
2022/11/15 08:42:36;;;;;;;25.23;11.77;;;10.50;99.90;;;;;;5048064;28;20494;-40
2022/11/15 08:45:03;;;;;;;26.73;12.52;;;10.60;99.90;;;;;;5050372;28;20038;-41
2022/11/15 08:47:29;;;;;;;28.00;13.05;;;10.60;99.90;;;;;;5045344;28;20111;-40
2022/11/15 08:49:55;;;;;;;30.38;14.18;;;10.60;99.90;;;;;;5043971;28;20486;-40
2022/11/15 08:52:21;;;;;;;28.67;13.63;;;10.70;99.90;;;;;;5040832;28;20072;-44
2022/11/15 08:54:46;;;;;;;25.67;12.70;;;10.70;99.90;;;;;;5036770;28;20044;-41
2022/11/15 08:57:12;;;;;;;25.05;12.40;;;10.70;99.90;;;;;;5042697;28;20091;-42
2022/11/15 08:59:38;;;;;;;25.20;13.00;;;10.70;99.90;;;;;;5043677;28;20040;-42
2022/11/15 09:02:04;;;;;;;25.00;12.65;;;10.80;99.90;;;;;;5041159;28;20049;-40
2022/11/15 09:04:30;;;;;;;23.23;12.02;;;10.80;99.90;;;;;;5037033;28;20033;-41
2022/11/15 09:06:56;;;;;;;27.75;13.75;;;10.80;99.90;;;;;;5040805;28;20473;-44
2022/11/15 09:09:22;;;;;;;26.88;13.30;;;10.90;99.90;;;;;;5037019;28;20139;-40
2022/11/15 09:11:48;;;;;;;25.23;12.85;;;10.90;99.90;;;;;;5043550;28;20069;-40
2022/11/15 09:14:14;;;;;;;23.10;13.23;;;10.90;99.90;;;;;;5034715;28;20432;-42
2022/11/15 09:16:40;;;;;;;26.27;12.23;;;11.00;99.90;;;;;;5040193;28;20040;-41
2022/11/15 09:19:07;;;;;;;23.33;12.48;;;11.00;99.90;;;;;;5045001;28;20042;-43
2022/11/15 09:21:32;;;;;;;25.65;11.98;;;11.00;99.90;;;;;;5043541;28;20040;-41
2022/11/15 09:23:58;;;;;;;22.60;11.68;;;11.00;99.90;;;;;;5042982;28;20395;-42
2022/11/15 09:26:24;;;;;;;24.10;12.70;;;11.00;99.90;;;;;;5043693;28;20032;-40
2022/11/15 09:28:50;;;;;;;20.40;11.13;;;11.00;99.90;;;;;;5034390;28;20059;-41
2022/11/15 09:31:16;;;;;;;19.65;11.45;;;11.00;99.90;;;;;;5032339;28;20048;-41
2022/11/15 09:33:44;;;;;;;28.52;11.50;;;11.00;99.90;;;;;;5051213;28;20049;-39
2022/11/15 09:36:10;;;;;;;16.58;10.23;;;11.00;99.90;;;;;;5045560;28;20094;-40
2022/11/15 09:38:36;;;;;;;19.83;11.05;;;11.10;99.90;;;;;;5047419;28;20486;-40
2022/11/15 09:41:13;;;;;;;22.95;12.25;;;11.10;99.90;;;;;;5039237;28;20099;-41
2022/11/15 09:43:54;;;;;;;17.23;9.35;;;11.10;99.90;;;;;;5042316;28;20133;-40
2022/11/15 09:46:46;;;;;;;15.38;9.45;;;11.10;99.90;;;;;;5037224;28;20075;-39
2022/11/15 09:49:15;;;;;;;17.60;9.88;;;11.10;99.90;;;;;;5045307;28;20045;-41
2022/11/15 09:51:47;;;;;;;18.75;10.30;;;11.10;99.90;;;;;;5037684;28;20494;-49
2022/11/15 09:54:36;;;;;;;17.77;9.45;;;11.10;99.90;;;;;;5048484;28;20045;-47
2022/11/15 09:57:16;;;;;;;18.63;8.80;;;11.20;99.90;;;;;;5047030;28;20375;-44
2022/11/15 09:59:42;;;;;;;15.75;9.43;;;11.20;99.90;;;;;;5035224;28;20120;-45
2022/11/15 10:02:08;;;;;;;16.48;9.48;;;11.20;99.90;;;;;;5036268;28;20517;-50
2022/11/15 10:04:35;;;;;;;14.43;7.85;;;11.30;99.90;;;;;;5039837;28;20103;-49
2022/11/15 10:07:12;;;;;;;16.40;8.52;;;11.30;99.90;;;;;;5041175;28;20494;-48
2022/11/15 10:09:45;;;;;;;18.73;8.90;;;11.30;99.90;;;;;;5035302;28;20041;-43
2022/11/15 10:12:12;;;;;;;14.05;7.57;;;11.30;99.90;;;;;;5031206;28;20045;-45
2022/11/15 10:14:38;;;;;;;17.17;8.32;;;11.30;99.90;;;;;;5037735;28;20123;-43
2022/11/15 10:17:25;;;;;;;14.98;8.20;;;11.40;99.90;;;;;;5038613;28;20406;-44
2022/11/15 10:20:09;;;;;;;13.63;7.60;;;11.40;99.90;;;;;;5039750;28;20033;-43
2022/11/15 10:22:40;;;;;;;13.80;7.88;;;11.50;99.90;;;;;;5045661;28;21086;-43
2022/11/15 10:25:12;;;;;;;11.50;7.40;;;11.50;99.90;;;;;;5035599;28;20041;-42
2022/11/15 10:27:41;;;;;;;12.43;7.22;;;11.50;99.90;;;;;;5044544;28;20032;-43
2022/11/15 10:30:13;;;;;;;12.85;7.57;;;11.60;99.90;;;;;;5037789;28;20128;-44
2022/11/15 10:32:41;;;;;;;16.60;7.40;;;11.60;99.90;;;;;;5040582;28;20099;-43
2022/11/15 10:35:30;;;;;;;11.13;5.90;;;11.60;99.90;;;;;;5045179;28;20056;-43
2022/11/15 10:38:10;;;;;;;10.63;6.07;;;11.60;99.90;;;;;;5033342;28;20518;-46
2022/11/15 10:40:38;;;;;;;10.52;5.65;;;11.60;99.90;;;;;;5048192;28;20120;-44
2022/11/15 10:43:12;;;;;;;10.25;5.47;;;11.60;99.90;;;;;;5042019;28;20045;-42
2022/11/15 10:45:38;;;;;;;13.25;6.50;;;11.60;99.90;;;;;;5038175;28;20112;-50
2022/11/15 10:48:13;;;;;;;11.25;5.47;;;11.60;99.90;;;;;;5042539;28;20116;-42
2022/11/15 10:50:47;;;;;;;10.43;6.00;;;11.70;99.90;;;;;;5039712;28;20044;-44
2022/11/15 10:53:22;;;;;;;11.05;5.32;;;11.70;99.90;;;;;;5043575;28;20067;-42
2022/11/15 10:55:51;;;;;;;9.07;5.00;;;11.80;99.90;;;;;;5048202;28;20040;-43
2022/11/15 10:58:38;;;;;;;9.25;5.10;;;12.00;99.90;;;;;;5046654;28;20037;-46
2022/11/15 11:01:17;;;;;;;9.68;5.50;;;12.20;99.90;;;;;;5038795;28;20103;-43
2022/11/15 11:03:45;;;;;;;8.18;4.50;;;12.40;99.90;;;;;;5037762;28;20047;-43
2022/11/15 11:06:16;;;;;;;9.27;4.10;;;12.50;99.90;;;;;;5035933;28;20045;-43
2022/11/15 11:09:04;;;;;;;6.95;3.63;;;12.60;99.90;;;;;;5045967;28;20517;-42
2022/11/15 11:11:48;;;;;;;7.32;4.18;;;12.90;99.90;;;;;;5037003;28;20045;-41
2022/11/15 11:14:33;;;;;;;9.70;3.83;;;13.00;99.90;;;;;;5040868;28;20056;-43
2022/11/15 11:17:30;;;;;;;5.82;3.40;;;13.00;99.90;;;;;;5033889;28;20045;-40
2022/11/15 11:20:01;;;;;;;7.68;3.92;;;13.10;99.90;;;;;;5034919;28;20098;-42
2022/11/15 11:23:14;;;;;;;6.57;3.57;;;12.90;99.90;;;;;;5041375;28;20037;-40
2022/11/15 11:26:08;;;;;;;8.60;4.00;;;12.70;99.90;;;;;;5014656;28;20041;-40
2022/11/15 11:28:46;;;;;;;6.53;3.70;;;12.60;99.90;;;;;;5030373;28;20047;-40
2022/11/15 11:31:47;;;;;;;5.45;3.20;;;12.60;99.90;;;;;;5043316;28;20038;-39
2022/11/15 11:34:38;;;;;;;4.05;2.35;;;12.60;99.90;;;;;;5034963;28;20077;-39
2022/11/15 11:37:14;;;;;;;4.28;2.35;;;12.80;99.90;;;;;;5035399;28;20047;-39
2022/11/15 11:40:06;;;;;;;5.75;3.45;;;13.00;99.90;;;;;;5036037;28;20114;-40
2022/11/15 11:42:57;;;;;;;5.65;3.10;;;13.00;99.90;;;;;;5023883;28;20900;-41
2022/11/15 11:46:01;;;;;;;7.53;3.17;;;12.90;99.90;;;;;;5034996;28;20037;-44
2022/11/15 11:49:09;;;;;;;5.18;2.80;;;12.90;99.90;;;;;;5040357;28;20048;-49
2022/11/15 11:51:38;;;;;;;4.55;2.60;;;13.00;99.90;;;;;;5034933;28;20060;-47
2022/11/15 11:54:21;;;;;;;6.05;2.55;;;13.40;99.90;;;;;;5038639;28;20132;-46
2022/11/15 11:56:49;;;;;;;4.97;2.35;;;13.90;99.90;;;;;;5035853;28;20037;-45
2022/11/15 11:59:42;;;;;;;5.28;2.40;;;14.30;99.90;;;;;;5040428;28;20037;-46
2022/11/15 12:02:38;;;;;;;6.85;2.65;;;14.50;99.90;;;;;;5033524;28;20099;-46
2022/11/15 12:05:13;;;;;;;4.80;2.65;;;14.20;99.90;;;;;;5043737;28;20037;-49
2022/11/15 12:07:40;;;;;;;6.68;3.10;;;13.80;99.90;;;;;;5040891;28;20117;-45
2022/11/15 12:10:33;;;;;;;5.00;2.28;;;13.80;99.90;;;;;;5041790;28;20072;-44
2022/11/15 12:13:06;;;;;;;4.68;2.10;;;14.10;99.90;;;;;;5040212;28;20044;-46
2022/11/15 12:15:41;;;;;;;5.45;2.13;;;13.90;99.90;;;;;;5037529;28;20501;-45
2022/11/15 12:18:12;;;;;;;4.25;2.45;;;13.70;99.90;;;;;;5038468;28;20045;-42
2022/11/15 12:20:42;;;;;;;6.90;2.40;;;13.50;99.90;;;;;;5044838;28;20128;-41
2022/11/15 12:23:13;;;;;;;3.60;2.10;;;13.30;99.90;;;;;;5031649;28;20141;-41
2022/11/15 12:25:52;;;;;;;4.78;1.90;;;13.20;99.90;;;;;;5034630;28;20510;-43
2022/11/15 12:28:39;;;;;;;6.22;2.05;;;13.10;99.90;;;;;;5035591;28;20065;-41
2022/11/15 12:31:20;;;;;;;6.90;1.92;;;13.10;99.90;;;;;;5038599;28;20053;-42
2022/11/15 12:33:48;;;;;;;3.58;1.70;;;13.30;99.90;;;;;;5037377;28;20152;-46
2022/11/15 12:36:23;;;;;;;2.80;1.52;;;13.40;99.90;;;;;;5041941;28;20483;-42
2022/11/15 12:38:54;;;;;;;3.47;1.52;;;13.40;99.90;;;;;;5044964;28;20041;-43
2022/11/15 12:41:21;;;;;;;4.00;1.33;;;13.60;99.90;;;;;;5038710;28;20052;-43
2022/11/15 12:43:48;;;;;;;2.25;1.00;;;13.70;99.90;;;;;;5038441;28;20045;-41
2022/11/15 12:46:22;;;;;;;2.72;1.73;;;13.70;99.90;;;;;;5042404;28;20402;-43
2022/11/15 12:48:53;;;;;;;2.97;1.40;;;13.80;99.90;;;;;;5047655;28;20588;-45
2022/11/15 12:51:43;;;;;;;3.35;1.08;;;14.10;99.90;;;;;;5040370;28;20040;-42
2022/11/15 12:54:21;;;;;;;3.92;1.27;;;14.50;99.90;;;;;;5039177;28;20518;-39
2022/11/15 12:57:07;;;;;;;2.65;1.00;;;14.90;99.80;;;;;;5045066;28;20037;-38
2022/11/15 12:59:58;;;;;;;3.95;1.33;;;15.00;98.70;;;;;;5045294;28;20037;-39
2022/11/15 13:02:26;;;;;;;3.30;1.45;;;15.40;99.00;;;;;;5039822;28;20475;-39
2022/11/15 13:04:55;;;;;;;3.90;1.17;;;15.70;99.40;;;;;;5045761;28;20040;-39
2022/11/15 13:07:41;;;;;;;3.70;0.88;;;15.70;98.20;;;;;;5040586;28;20438;-39
2022/11/15 13:10:10;;;;;;;2.10;0.70;;;15.70;94.90;;;;;;5047435;28;20120;-39
2022/11/15 13:12:41;;;;;;;4.40;0.90;;;15.50;96.00;;;;;;5049304;28;20493;-39
2022/11/15 13:15:13;;;;;;;2.88;1.00;;;15.50;96.50;;;;;;5049048;28;20446;-40